createdAt,value
2022-12-04T00:00:01.627Z,0.01
2022-12-04T00:01:01.599Z,-0.07
2022-12-04T00:02:01.620Z,0.07
2022-12-04T00:03:01.616Z,0.01
2022-12-04T00:04:01.585Z,0.01
2022-12-04T00:05:01.614Z,0.01
2022-12-04T00:06:01.586Z,-0.03
2022-12-04T00:07:01.581Z,0.00
2022-12-04T00:08:01.629Z,0.00
2022-12-04T00:09:01.544Z,-0.03
2022-12-04T00:10:01.529Z,-0.03
2022-12-04T00:11:01.522Z,-0.10
2022-12-04T00:12:01.546Z,0.07
2022-12-04T00:13:01.541Z,0.08
2022-12-04T00:14:06.500Z,0.04
2022-12-04T00:16:02.516Z,0.01
2022-12-04T00:17:01.469Z,-0.08
2022-12-04T00:18:01.490Z,0.04
2022-12-04T00:19:01.505Z,-0.11
2022-12-04T00:20:01.474Z,-0.07
2022-12-04T00:21:01.463Z,-0.06
2022-12-04T00:22:01.465Z,-0.07
2022-12-04T00:23:01.431Z,-0.02
2022-12-04T00:24:01.444Z,0.01
2022-12-04T00:25:01.429Z,-0.06
2022-12-04T00:26:01.450Z,0.00
2022-12-04T00:27:01.412Z,-0.06
2022-12-04T00:28:01.412Z,-0.06
2022-12-04T00:29:01.407Z,0.01
2022-12-04T00:30:01.391Z,-0.06
2022-12-04T00:31:01.407Z,-0.08
2022-12-04T00:32:01.533Z,-0.06
2022-12-04T00:33:01.374Z,-0.10
2022-12-04T00:34:02.096Z,-0.02
2022-12-04T00:35:01.375Z,-0.02
2022-12-04T00:36:01.370Z,-0.08
2022-12-04T00:37:01.372Z,-0.10
2022-12-04T00:38:01.347Z,-0.06
2022-12-04T00:39:01.340Z,-0.10
2022-12-04T00:40:01.351Z,-0.03
2022-12-04T00:41:01.351Z,-0.03
2022-12-04T00:42:01.352Z,-0.03
2022-12-04T00:43:01.341Z,0.00
2022-12-04T00:44:01.313Z,-0.11
2022-12-04T00:45:01.326Z,-0.08
2022-12-04T00:46:01.372Z,-0.11
2022-12-04T00:47:01.318Z,-0.13
2022-12-04T00:48:01.292Z,-0.02
2022-12-04T00:49:01.292Z,-0.08
2022-12-04T00:50:01.290Z,-0.02
2022-12-04T00:51:01.269Z,-0.06
2022-12-04T00:52:01.269Z,-0.02
2022-12-04T00:53:01.248Z,-0.08
2022-12-04T00:54:01.253Z,-0.11
2022-12-04T00:55:01.241Z,-0.07
2022-12-04T00:56:01.246Z,-0.06
2022-12-04T00:57:01.233Z,-0.08
2022-12-04T00:58:01.257Z,0.03
2022-12-04T00:59:01.230Z,-0.06
2022-12-04T01:00:01.210Z,0.00
2022-12-04T01:01:01.230Z,0.03
2022-12-04T01:02:01.180Z,0.01
2022-12-04T01:03:01.232Z,-0.02
2022-12-04T01:04:01.212Z,0.04
2022-12-04T01:05:01.158Z,-0.02
2022-12-04T01:06:01.195Z,-0.02
2022-12-04T01:07:05.013Z,0.05
2022-12-04T01:08:08.231Z,0.04
2022-12-04T01:09:01.260Z,-0.07
2022-12-04T01:10:01.154Z,-0.06
2022-12-04T01:11:01.191Z,0.03
2022-12-04T01:12:01.125Z,-0.02
2022-12-04T01:13:01.124Z,-0.03
2022-12-04T01:14:01.115Z,0.04
2022-12-04T01:15:01.284Z,0.01
2022-12-04T01:16:01.246Z,0.03
2022-12-04T01:17:01.309Z,-0.03
2022-12-04T01:18:01.080Z,0.01
2022-12-04T01:19:01.328Z,0.07
2022-12-04T01:20:01.098Z,-0.07
2022-12-04T01:21:01.090Z,0.04
2022-12-04T01:22:01.300Z,-0.08
2022-12-04T01:23:01.106Z,0.04
2022-12-04T01:24:01.064Z,-0.08
2022-12-04T01:25:01.036Z,0.03
2022-12-04T01:26:01.260Z,-0.07
2022-12-04T01:27:01.034Z,0.04
2022-12-04T01:28:01.083Z,-0.06
2022-12-04T01:29:01.111Z,-0.03
2022-12-04T01:30:01.144Z,0.07
2022-12-04T01:31:00.984Z,-0.02
2022-12-04T01:32:01.156Z,0.00
2022-12-04T01:33:01.065Z,0.03
2022-12-04T01:34:00.997Z,0.07
2022-12-04T01:35:01.910Z,0.05
2022-12-04T01:36:00.974Z,0.07
2022-12-04T01:37:02.122Z,0.08
2022-12-04T01:38:02.076Z,0.07
2022-12-04T01:39:01.095Z,0.16
2022-12-04T01:40:00.931Z,0.15
2022-12-04T01:41:02.944Z,0.08
2022-12-04T01:42:01.172Z,0.00
2022-12-04T01:43:01.990Z,-0.03
2022-12-04T01:44:00.935Z,0.12
2022-12-04T01:45:01.051Z,0.05
2022-12-04T01:46:03.387Z,0.08
2022-12-04T01:47:01.265Z,0.12
2022-12-04T01:48:01.196Z,0.01
2022-12-04T01:49:02.359Z,0.10
2022-12-04T01:50:00.859Z,0.12
2022-12-04T01:51:00.881Z,0.16
2022-12-04T01:52:00.846Z,0.21
2022-12-04T01:53:00.859Z,-0.02
2022-12-04T01:54:00.850Z,0.03
2022-12-04T01:55:01.752Z,0.04
2022-12-04T01:56:01.210Z,0.07
2022-12-04T01:57:00.969Z,0.08
2022-12-04T01:58:00.823Z,0.07
2022-12-04T01:59:00.816Z,0.11
2022-12-04T02:00:00.845Z,0.05
2022-12-04T02:01:06.521Z,0.08
2022-12-04T02:02:01.087Z,0.11
2022-12-04T02:03:00.827Z,0.15
2022-12-04T02:04:00.788Z,0.10
2022-12-04T02:05:00.789Z,0.05
2022-12-04T02:06:00.762Z,0.10
2022-12-04T02:07:00.751Z,0.01
2022-12-04T02:08:00.812Z,0.16
2022-12-04T02:09:00.799Z,0.18
2022-12-04T02:10:00.993Z,0.10
2022-12-04T02:11:01.644Z,0.18
2022-12-04T02:12:01.108Z,0.11
2022-12-04T02:13:01.339Z,0.10
2022-12-04T02:14:01.234Z,0.11
2022-12-04T02:15:00.691Z,0.10
2022-12-04T02:16:00.700Z,0.08
2022-12-04T02:17:00.962Z,0.08
2022-12-04T02:18:01.648Z,0.16
2022-12-04T02:19:00.662Z,0.10
2022-12-04T02:20:01.110Z,0.11
2022-12-04T02:21:01.128Z,0.07
2022-12-04T02:22:00.653Z,0.10
2022-12-04T02:23:01.257Z,0.12
2022-12-04T02:24:00.620Z,0.07
2022-12-04T02:25:01.762Z,0.01
2022-12-04T02:26:02.049Z,0.07
2022-12-04T02:27:01.899Z,0.19
2022-12-04T02:28:02.151Z,0.08
2022-12-04T02:29:00.751Z,0.22
2022-12-04T02:30:00.581Z,0.10
2022-12-04T02:31:01.260Z,0.12
2022-12-04T02:32:01.072Z,0.19
2022-12-04T02:33:01.918Z,0.23
2022-12-04T02:34:01.131Z,0.18
2022-12-04T02:35:01.371Z,0.12
2022-12-04T02:36:00.593Z,0.11
2022-12-04T02:37:00.882Z,0.12
2022-12-04T02:38:00.549Z,0.12
2022-12-04T02:39:00.547Z,0.19
2022-12-04T02:40:01.174Z,0.07
2022-12-04T02:41:00.506Z,0.18
2022-12-04T02:42:00.945Z,0.12
2022-12-04T02:43:00.637Z,0.18
2022-12-04T02:44:00.734Z,0.15
2022-12-04T02:45:00.475Z,0.16
2022-12-04T02:46:01.196Z,0.18
2022-12-04T02:47:00.481Z,0.21
2022-12-04T02:48:00.477Z,0.16
2022-12-04T02:49:00.458Z,0.15
2022-12-04T02:50:00.922Z,0.12
2022-12-04T02:51:00.585Z,0.11
2022-12-04T02:52:00.430Z,0.08
2022-12-04T02:53:00.641Z,0.12
2022-12-04T02:54:00.434Z,0.05
2022-12-04T02:55:05.298Z,0.26
2022-12-04T02:56:01.165Z,0.12
2022-12-04T02:57:00.392Z,0.22
2022-12-04T02:58:00.825Z,0.21
2022-12-04T02:59:00.384Z,0.22
2022-12-04T03:00:00.379Z,0.28
2022-12-04T03:01:00.661Z,0.23
2022-12-04T03:02:00.458Z,0.15
2022-12-04T03:03:00.402Z,0.15
2022-12-04T03:04:00.353Z,0.15
2022-12-04T03:05:00.344Z,0.23
2022-12-04T03:06:00.479Z,0.26
2022-12-04T03:07:00.700Z,0.25
2022-12-04T03:08:00.397Z,0.23
2022-12-04T03:09:00.319Z,0.18
2022-12-04T03:10:00.333Z,0.26
2022-12-04T03:11:00.396Z,0.25
2022-12-04T03:12:00.310Z,0.23
2022-12-04T03:13:00.398Z,0.25
2022-12-04T03:14:00.293Z,0.21
2022-12-04T03:15:00.291Z,0.31
2022-12-04T03:16:00.348Z,0.26
2022-12-04T03:17:00.608Z,0.23
2022-12-04T03:18:01.181Z,0.25
2022-12-04T03:19:00.293Z,0.22
2022-12-04T03:20:00.946Z,0.28
2022-12-04T03:21:00.843Z,0.19
2022-12-04T03:22:00.228Z,0.19
2022-12-04T03:23:01.667Z,0.22
2022-12-04T03:24:00.779Z,0.25
2022-12-04T03:25:00.696Z,0.26
2022-12-04T03:26:01.002Z,0.28
2022-12-04T03:27:00.191Z,0.23
2022-12-04T03:28:01.192Z,0.34
2022-12-04T03:29:00.190Z,0.22
2022-12-04T03:30:00.302Z,0.25
2022-12-04T03:31:00.479Z,0.25
2022-12-04T03:32:00.153Z,0.23
2022-12-04T03:33:00.163Z,0.26
2022-12-04T03:34:00.160Z,0.25
2022-12-04T03:35:00.154Z,0.23
2022-12-04T03:36:01.156Z,0.22
2022-12-04T03:37:00.372Z,0.36
2022-12-04T03:38:01.128Z,0.28
2022-12-04T03:39:00.742Z,0.37
2022-12-04T03:40:00.148Z,0.44
2022-12-04T03:41:00.337Z,0.43
2022-12-04T03:42:01.007Z,0.37
2022-12-04T03:43:00.153Z,0.40
2022-12-04T03:44:00.360Z,0.37
2022-12-04T03:45:00.723Z,0.31
2022-12-04T03:46:00.181Z,0.37
2022-12-04T03:47:00.309Z,0.36
2022-12-04T03:48:00.341Z,0.37
2022-12-04T03:49:00.101Z,0.37
2022-12-04T03:50:00.040Z,0.32
2022-12-04T03:51:00.036Z,0.39
2022-12-04T03:52:00.259Z,0.32
2022-12-04T03:53:00.035Z,0.40
2022-12-04T03:54:00.073Z,0.40
2022-12-04T03:55:00.147Z,0.43
2022-12-04T03:56:00.135Z,0.46
2022-12-04T03:57:00.416Z,0.43
2022-12-04T03:58:00.700Z,0.50
2022-12-04T03:59:00.015Z,0.40
2022-12-04T04:00:00.625Z,0.44
2022-12-04T04:01:00.163Z,0.34
2022-12-04T04:02:00.457Z,0.40
2022-12-04T04:03:00.058Z,0.43
2022-12-04T04:04:00.962Z,0.44
2022-12-04T04:05:00.060Z,0.43
2022-12-04T04:05:59.991Z,0.46
2022-12-04T04:07:00.001Z,0.47
2022-12-04T04:08:01.550Z,0.46
2022-12-04T04:08:59.926Z,0.63
2022-12-04T04:10:00.148Z,0.58
2022-12-04T04:10:59.920Z,0.55
2022-12-04T04:12:00.660Z,0.52
2022-12-04T04:13:00.031Z,0.58
2022-12-04T04:14:00.051Z,0.49
2022-12-04T04:15:00.015Z,0.43
2022-12-04T04:15:59.951Z,0.39
2022-12-04T04:16:59.888Z,0.43
2022-12-04T04:18:01.201Z,0.40
2022-12-04T04:19:00.249Z,0.47
2022-12-04T04:20:00.304Z,0.44
2022-12-04T04:20:59.957Z,0.39
2022-12-04T04:22:01.159Z,0.46
2022-12-04T04:22:59.843Z,0.43
2022-12-04T04:23:59.809Z,0.37
2022-12-04T04:25:00.718Z,0.37
2022-12-04T04:25:59.853Z,0.39
2022-12-04T04:26:59.913Z,0.43
2022-12-04T04:28:00.698Z,0.44
2022-12-04T04:28:59.843Z,0.46
2022-12-04T04:29:59.985Z,0.41
2022-12-04T04:30:59.831Z,0.29
2022-12-04T04:32:01.019Z,0.44
2022-12-04T04:33:01.048Z,0.46
2022-12-04T04:33:59.872Z,0.37
2022-12-04T04:35:00.254Z,0.41
2022-12-04T04:36:00.063Z,0.39
2022-12-04T04:37:00.096Z,0.44
2022-12-04T04:37:59.779Z,0.46
2022-12-04T04:38:59.880Z,0.47
2022-12-04T04:40:00.520Z,0.36
2022-12-04T04:40:59.704Z,0.36
2022-12-04T04:41:59.703Z,0.40
2022-12-04T04:42:59.710Z,0.41
2022-12-04T04:43:59.735Z,0.40
2022-12-04T04:44:59.764Z,0.49
2022-12-04T04:46:00.161Z,0.40
2022-12-04T04:46:59.664Z,0.40
2022-12-04T04:47:59.647Z,0.31
2022-12-04T04:48:59.867Z,0.40
2022-12-04T04:50:00.559Z,0.39
2022-12-04T04:50:59.725Z,0.37
2022-12-04T04:52:00.260Z,0.36
2022-12-04T04:52:59.620Z,0.41
2022-12-04T04:53:59.607Z,0.41
2022-12-04T04:54:59.655Z,0.43
2022-12-04T04:56:00.094Z,0.50
2022-12-04T04:56:59.632Z,0.43
2022-12-04T04:57:59.576Z,0.41
2022-12-04T04:58:59.566Z,0.43
2022-12-04T04:59:59.635Z,0.46
2022-12-04T05:00:59.594Z,0.46
2022-12-04T05:01:59.639Z,0.36
2022-12-04T05:02:59.627Z,0.41
2022-12-04T05:03:59.536Z,0.40
2022-12-04T05:04:59.547Z,0.50
2022-12-04T05:05:59.626Z,0.47
2022-12-04T05:06:59.506Z,0.47
2022-12-04T05:07:59.642Z,0.40
2022-12-04T05:08:59.497Z,0.40
2022-12-04T05:09:59.701Z,0.49
2022-12-04T05:10:59.497Z,0.40
2022-12-04T05:11:59.497Z,0.43
2022-12-04T05:12:59.466Z,0.41
2022-12-04T05:13:59.497Z,0.36
2022-12-04T05:14:59.495Z,0.46
2022-12-04T05:15:59.578Z,0.40
2022-12-04T05:17:01.919Z,0.50
2022-12-04T05:17:59.456Z,0.41
2022-12-04T05:18:59.470Z,0.32
2022-12-04T05:19:59.796Z,0.37
2022-12-04T05:20:59.447Z,0.36
2022-12-04T05:21:59.433Z,0.41
2022-12-04T05:22:59.426Z,0.39
2022-12-04T05:23:59.413Z,0.37
2022-12-04T05:24:59.440Z,0.36
2022-12-04T05:25:59.382Z,0.44
2022-12-04T05:26:59.435Z,0.43
2022-12-04T05:27:59.534Z,0.43
2022-12-04T05:28:59.449Z,0.47
2022-12-04T05:29:59.628Z,0.47
2022-12-04T05:30:59.589Z,0.50
2022-12-04T05:31:59.379Z,0.49
2022-12-04T05:32:59.350Z,0.47
2022-12-04T05:33:59.428Z,0.63
2022-12-04T05:34:59.328Z,0.46
2022-12-04T05:35:59.362Z,0.52
2022-12-04T05:36:59.312Z,0.50
2022-12-04T05:37:59.342Z,0.50
2022-12-04T05:38:59.337Z,0.43
2022-12-04T05:39:59.473Z,0.63
2022-12-04T05:41:00.178Z,0.55
2022-12-04T05:41:59.293Z,0.56
2022-12-04T05:42:59.355Z,0.60
2022-12-04T05:43:59.570Z,0.52
2022-12-04T05:44:59.793Z,0.49
2022-12-04T05:45:59.750Z,0.49
2022-12-04T05:46:59.372Z,0.55
2022-12-04T05:47:59.246Z,0.56
2022-12-04T05:48:59.241Z,0.58
2022-12-04T05:49:59.415Z,0.55
2022-12-04T05:50:59.231Z,0.60
2022-12-04T05:51:59.607Z,0.58
2022-12-04T05:52:59.297Z,0.59
2022-12-04T05:53:59.338Z,0.60
2022-12-04T05:54:59.716Z,0.59
2022-12-04T05:55:59.248Z,0.56
2022-12-04T05:56:59.261Z,0.52
2022-12-04T05:57:59.237Z,0.62
2022-12-04T05:58:59.196Z,0.56
2022-12-04T05:59:59.394Z,0.52
2022-12-04T06:00:59.893Z,0.55
2022-12-04T06:01:59.240Z,0.50
2022-12-04T06:02:59.248Z,0.55
2022-12-04T06:03:59.149Z,0.60
2022-12-04T06:05:00.047Z,0.59
2022-12-04T06:06:00.051Z,0.65
2022-12-04T06:06:59.184Z,0.62
2022-12-04T06:07:59.248Z,0.58
2022-12-04T06:08:59.733Z,0.59
2022-12-04T06:09:59.173Z,0.62
2022-12-04T06:10:59.497Z,0.59
2022-12-04T06:11:59.495Z,0.55
2022-12-04T06:12:59.092Z,0.58
2022-12-04T06:13:59.095Z,0.63
2022-12-04T06:14:59.101Z,0.55
2022-12-04T06:15:59.258Z,0.58
2022-12-04T06:16:59.094Z,0.60
2022-12-04T06:17:59.046Z,0.52
2022-12-04T06:18:59.101Z,0.55
2022-12-04T06:19:59.440Z,0.46
2022-12-04T06:20:59.042Z,0.47
2022-12-04T06:21:59.056Z,0.52
2022-12-04T06:22:58.996Z,0.56
2022-12-04T06:23:58.985Z,0.58
2022-12-04T06:24:58.977Z,0.59
2022-12-04T06:26:05.251Z,0.56
2022-12-04T06:27:28.736Z,0.58
2022-12-04T06:28:00.009Z,0.55
2022-12-04T06:28:58.965Z,0.55
2022-12-04T06:29:59.191Z,0.55
2022-12-04T06:30:58.937Z,0.59
2022-12-04T06:31:59.007Z,0.66
2022-12-04T06:32:58.938Z,0.62
2022-12-04T06:33:58.924Z,0.58
2022-12-04T06:34:58.915Z,0.56
2022-12-04T06:35:58.912Z,0.63
2022-12-04T06:36:58.910Z,0.60
2022-12-04T06:37:58.912Z,0.69
2022-12-04T06:38:58.910Z,0.65
2022-12-04T06:39:59.249Z,0.62
2022-12-04T06:40:58.876Z,0.65
2022-12-04T06:41:58.873Z,0.66
2022-12-04T06:42:58.860Z,0.60
2022-12-04T06:43:58.857Z,0.66
2022-12-04T06:44:58.869Z,0.59
2022-12-04T06:45:58.859Z,0.73
2022-12-04T06:47:00.960Z,0.63
2022-12-04T06:47:58.841Z,0.69
2022-12-04T06:48:58.816Z,0.62
2022-12-04T06:49:59.087Z,0.59
2022-12-04T06:50:58.827Z,0.65
2022-12-04T06:51:58.801Z,0.69
2022-12-04T06:53:02.283Z,0.68
2022-12-04T06:53:58.803Z,0.58
2022-12-04T06:54:58.790Z,0.68
2022-12-04T06:55:58.784Z,0.62
2022-12-04T06:56:58.764Z,0.66
2022-12-04T06:57:58.764Z,0.63
2022-12-04T06:58:58.751Z,0.68
2022-12-04T06:59:58.851Z,0.65
2022-12-04T07:00:58.794Z,0.63
2022-12-04T07:01:58.801Z,0.65
2022-12-04T07:02:58.738Z,0.62
2022-12-04T07:03:58.745Z,0.59
2022-12-04T07:04:58.735Z,0.56
2022-12-04T07:05:58.706Z,0.62
2022-12-04T07:06:58.699Z,0.60
2022-12-04T07:07:58.746Z,0.63
2022-12-04T07:09:05.717Z,0.68
2022-12-04T07:09:58.835Z,0.59
2022-12-04T07:10:59.407Z,0.60
2022-12-04T07:11:58.681Z,0.65
2022-12-04T07:12:58.675Z,0.63
2022-12-04T07:13:58.676Z,0.68
2022-12-04T07:14:58.649Z,0.66
2022-12-04T07:15:58.668Z,0.66
2022-12-04T07:16:58.718Z,0.60
2022-12-04T07:17:58.639Z,0.58
2022-12-04T07:18:58.624Z,0.74
2022-12-04T07:19:58.922Z,0.73
2022-12-04T07:20:58.606Z,0.73
2022-12-04T07:21:58.612Z,0.77
2022-12-04T07:23:02.701Z,0.78
2022-12-04T07:23:59.604Z,0.83
2022-12-04T07:24:58.595Z,0.73
2022-12-04T07:25:58.591Z,0.80
2022-12-04T07:26:58.580Z,0.86
2022-12-04T07:27:58.576Z,0.70
2022-12-04T07:28:58.561Z,0.74
2022-12-04T07:29:58.653Z,0.77
2022-12-04T07:30:58.550Z,0.73
2022-12-04T07:31:58.613Z,0.73
2022-12-04T07:32:58.547Z,0.69
2022-12-04T07:33:58.528Z,0.73
2022-12-04T07:34:58.507Z,0.74
2022-12-04T07:35:58.510Z,0.78
2022-12-04T07:36:58.494Z,0.83
2022-12-04T07:37:58.504Z,0.84
2022-12-04T07:38:58.514Z,0.78
2022-12-04T07:39:58.673Z,0.73
2022-12-04T07:40:58.471Z,0.77
2022-12-04T07:41:58.484Z,0.84
2022-12-04T07:42:58.471Z,0.80
2022-12-04T07:43:58.459Z,0.74
2022-12-04T07:44:58.477Z,0.81
2022-12-04T07:45:58.485Z,0.80
2022-12-04T07:46:58.456Z,0.65
2022-12-04T07:47:58.427Z,0.80
2022-12-04T07:48:58.444Z,0.84
2022-12-04T07:49:58.596Z,0.80
2022-12-04T07:50:58.401Z,0.83
2022-12-04T07:51:58.389Z,0.84
2022-12-04T07:52:58.406Z,0.84
2022-12-04T07:54:02.629Z,0.78
2022-12-04T07:54:58.384Z,0.87
2022-12-04T07:55:58.369Z,0.84
2022-12-04T07:56:58.374Z,0.92
2022-12-04T07:57:58.374Z,0.83
2022-12-04T07:58:58.358Z,0.91
2022-12-04T07:59:58.474Z,0.92
2022-12-04T08:00:58.377Z,0.94
2022-12-04T08:01:58.397Z,0.87
2022-12-04T08:02:58.345Z,0.81
2022-12-04T08:03:58.422Z,0.83
2022-12-04T08:04:58.320Z,0.87
2022-12-04T08:05:58.309Z,0.88
2022-12-04T08:06:58.314Z,0.88
2022-12-04T08:07:58.389Z,0.84
2022-12-04T08:08:58.289Z,0.84
2022-12-04T08:09:58.386Z,0.98
2022-12-04T08:10:58.277Z,0.83
2022-12-04T08:11:58.288Z,0.74
2022-12-04T08:12:58.253Z,0.84
2022-12-04T08:13:58.280Z,0.87
2022-12-04T08:14:58.253Z,0.83
2022-12-04T08:15:58.234Z,0.83
2022-12-04T08:16:58.301Z,0.77
2022-12-04T08:17:58.228Z,0.80
2022-12-04T08:18:58.257Z,0.88
2022-12-04T08:19:58.528Z,0.84
2022-12-04T08:20:58.220Z,0.92
2022-12-04T08:21:58.206Z,0.86
2022-12-04T08:22:58.196Z,0.86
2022-12-04T08:23:58.215Z,0.92
2022-12-04T08:24:58.196Z,0.83
2022-12-04T08:25:58.178Z,0.94
2022-12-04T08:26:58.160Z,0.83
2022-12-04T08:27:58.159Z,0.91
2022-12-04T08:28:58.155Z,0.96
2022-12-04T08:29:58.469Z,0.86
2022-12-04T08:30:58.206Z,0.94
2022-12-04T08:31:58.134Z,0.92
2022-12-04T08:32:58.116Z,0.98
2022-12-04T08:33:58.112Z,0.96
2022-12-04T08:34:58.133Z,0.95
2022-12-04T08:35:58.104Z,1.02
2022-12-04T08:36:58.124Z,0.92
2022-12-04T08:37:58.100Z,1.04
2022-12-04T08:38:58.135Z,1.04
2022-12-04T08:39:58.359Z,1.06
2022-12-04T08:40:58.063Z,1.05
2022-12-04T08:41:58.063Z,0.95
2022-12-04T08:42:58.070Z,1.04
2022-12-04T08:43:58.142Z,0.98
2022-12-04T08:44:58.042Z,1.05
2022-12-04T08:45:58.094Z,1.05
2022-12-04T08:46:58.034Z,1.05
2022-12-04T08:47:58.024Z,1.05
2022-12-04T08:48:58.035Z,1.10
2022-12-04T08:49:58.304Z,1.06
2022-12-04T08:50:58.010Z,1.05
2022-12-04T08:51:58.005Z,1.04
2022-12-04T08:52:57.987Z,1.10
2022-12-04T08:53:57.980Z,1.04
2022-12-04T08:54:57.994Z,1.17
2022-12-04T08:55:57.992Z,1.20
2022-12-04T08:56:57.965Z,1.19
2022-12-04T08:57:57.955Z,1.26
2022-12-04T08:58:57.942Z,1.19
2022-12-04T08:59:58.325Z,1.16
2022-12-04T09:00:58.012Z,1.30
2022-12-04T09:01:58.082Z,1.34
2022-12-04T09:02:57.940Z,1.26
2022-12-04T09:03:57.998Z,1.32
2022-12-04T09:04:58.012Z,1.31
2022-12-04T09:05:57.908Z,1.30
2022-12-04T09:06:57.898Z,1.37
2022-12-04T09:07:57.928Z,1.42
2022-12-04T09:08:57.896Z,1.28
2022-12-04T09:09:58.254Z,1.32
2022-12-04T09:10:57.872Z,1.30
2022-12-04T09:11:57.905Z,1.28
2022-12-04T09:12:57.869Z,1.31
2022-12-04T09:13:57.859Z,1.31
2022-12-04T09:14:57.883Z,1.34
2022-12-04T09:15:57.918Z,1.41
2022-12-04T09:16:57.826Z,1.37
2022-12-04T09:17:57.822Z,1.42
2022-12-04T09:18:57.839Z,1.48
2022-12-04T09:20:00.909Z,1.31
2022-12-04T09:20:57.801Z,1.41
2022-12-04T09:21:57.793Z,1.50
2022-12-04T09:23:05.032Z,1.40
2022-12-04T09:23:58.840Z,1.35
2022-12-04T09:24:57.771Z,1.53
2022-12-04T09:25:57.814Z,1.38
2022-12-04T09:26:57.803Z,1.45
2022-12-04T09:27:57.758Z,1.48
2022-12-04T09:28:57.754Z,1.52
2022-12-04T09:29:58.102Z,1.35
2022-12-04T09:30:57.789Z,1.45
2022-12-04T09:31:57.756Z,1.44
2022-12-04T09:32:57.713Z,1.48
2022-12-04T09:33:57.715Z,1.45
2022-12-04T09:34:57.707Z,1.37
2022-12-04T09:35:57.692Z,1.34
2022-12-04T09:36:57.721Z,1.38
2022-12-04T09:37:57.717Z,1.35
2022-12-04T09:38:57.682Z,1.32
2022-12-04T09:39:57.898Z,1.32
2022-12-04T09:40:57.660Z,1.41
2022-12-04T09:41:57.676Z,1.37
2022-12-04T09:42:57.649Z,1.40
2022-12-04T09:43:57.635Z,1.42
2022-12-04T09:44:57.636Z,1.38
2022-12-04T09:45:57.660Z,1.35
2022-12-04T09:46:57.680Z,1.35
2022-12-04T09:47:57.642Z,1.37
2022-12-04T09:48:57.626Z,1.42
2022-12-04T09:49:57.970Z,1.40
2022-12-04T09:50:57.584Z,1.44
2022-12-04T09:51:57.581Z,1.49
2022-12-04T09:52:57.586Z,1.45
2022-12-04T09:53:57.559Z,1.45
2022-12-04T09:54:57.555Z,1.52
2022-12-04T09:55:57.576Z,1.45
2022-12-04T09:56:57.573Z,1.42
2022-12-04T09:58:01.752Z,1.56
2022-12-04T09:58:57.525Z,1.48
2022-12-04T09:59:57.943Z,1.56
2022-12-04T10:00:57.532Z,1.60
2022-12-04T10:01:57.522Z,1.53
2022-12-04T10:02:57.676Z,1.48
2022-12-04T10:04:02.635Z,1.52
2022-12-04T10:04:57.510Z,1.53
2022-12-04T10:05:57.481Z,1.53
2022-12-04T10:06:57.468Z,1.53
2022-12-04T10:07:57.502Z,1.59
2022-12-04T10:08:57.455Z,1.68
2022-12-04T10:09:57.651Z,1.58
2022-12-04T10:10:57.502Z,1.53
2022-12-04T10:11:57.471Z,1.62
2022-12-04T10:12:57.466Z,1.56
2022-12-04T10:13:57.471Z,1.59
2022-12-04T10:14:57.417Z,1.68
2022-12-04T10:15:57.463Z,1.58
2022-12-04T10:16:57.420Z,1.60
2022-12-04T10:17:57.411Z,1.63
2022-12-04T10:18:57.409Z,1.68
2022-12-04T10:19:57.745Z,1.71
2022-12-04T10:20:57.397Z,1.68
2022-12-04T10:21:57.376Z,1.59
2022-12-04T10:22:57.412Z,1.63
2022-12-04T10:23:57.371Z,1.59
2022-12-04T10:24:57.387Z,1.60
2022-12-04T10:25:57.342Z,1.63
2022-12-04T10:26:57.375Z,1.70
2022-12-04T10:27:57.341Z,1.66
2022-12-04T10:28:57.324Z,1.63
2022-12-04T10:29:57.784Z,1.66
2022-12-04T10:30:57.316Z,1.73
2022-12-04T10:31:57.335Z,1.66
2022-12-04T10:32:57.307Z,1.68
2022-12-04T10:33:57.307Z,1.63
2022-12-04T10:34:57.309Z,1.56
2022-12-04T10:35:57.310Z,1.58
2022-12-04T10:36:57.284Z,1.59
2022-12-04T10:37:57.291Z,1.59
2022-12-04T10:38:57.281Z,1.66
2022-12-04T10:39:57.572Z,1.55
2022-12-04T10:40:57.248Z,1.66
2022-12-04T10:41:57.264Z,1.66
2022-12-04T10:42:57.245Z,1.62
2022-12-04T10:43:57.259Z,1.67
2022-12-04T10:44:57.233Z,1.62
2022-12-04T10:45:57.208Z,1.55
2022-12-04T10:46:57.384Z,1.59
2022-12-04T10:47:57.221Z,1.60
2022-12-04T10:48:57.197Z,1.68
2022-12-04T10:49:57.483Z,1.59
2022-12-04T10:50:57.210Z,1.68
2022-12-04T10:51:57.183Z,1.73
2022-12-04T10:52:57.185Z,1.73
2022-12-04T10:53:57.164Z,1.70
2022-12-04T10:54:57.149Z,1.66
2022-12-04T10:55:57.182Z,1.76
2022-12-04T10:56:57.312Z,1.71
2022-12-04T10:57:57.133Z,1.68
2022-12-04T10:58:57.180Z,1.67
2022-12-04T10:59:57.573Z,1.67
2022-12-04T11:00:57.130Z,1.58
2022-12-04T11:02:01.572Z,1.68
2022-12-04T11:02:57.212Z,1.71
2022-12-04T11:03:57.092Z,1.70
2022-12-04T11:04:57.119Z,1.76
2022-12-04T11:05:57.145Z,1.76
2022-12-04T11:06:57.170Z,1.67
2022-12-04T11:07:57.115Z,1.68
2022-12-04T11:08:57.109Z,1.76
2022-12-04T11:09:57.428Z,1.62
2022-12-04T11:10:57.044Z,1.71
2022-12-04T11:11:57.133Z,1.71
2022-12-04T11:12:57.040Z,1.62
2022-12-04T11:13:57.064Z,1.62
2022-12-04T11:14:57.053Z,1.58
2022-12-04T11:15:57.092Z,1.71
2022-12-04T11:16:57.034Z,1.77
2022-12-04T11:17:57.024Z,1.74
2022-12-04T11:18:57.001Z,1.78
2022-12-04T11:19:57.260Z,1.74
2022-12-04T11:20:56.988Z,1.70
2022-12-04T11:21:57.021Z,1.78
2022-12-04T11:22:56.988Z,1.77
2022-12-04T11:23:56.983Z,1.73
2022-12-04T11:24:56.978Z,1.74
2022-12-04T11:26:02.121Z,1.80
2022-12-04T11:26:58.023Z,1.80
2022-12-04T11:27:57.055Z,1.81
2022-12-04T11:28:56.944Z,1.77
2022-12-04T11:29:57.438Z,1.70
2022-12-04T11:30:56.997Z,1.80
2022-12-04T11:31:59.350Z,1.85
2022-12-04T11:32:56.966Z,1.91
2022-12-04T11:33:56.934Z,1.88
2022-12-04T11:34:56.918Z,1.78
2022-12-04T11:35:56.946Z,1.85
2022-12-04T11:36:56.918Z,1.71
2022-12-04T11:37:56.910Z,1.84
2022-12-04T11:38:56.953Z,1.78
2022-12-04T11:39:57.158Z,1.74
2022-12-04T11:40:56.893Z,1.73
2022-12-04T11:41:57.010Z,1.67
2022-12-04T11:42:56.990Z,1.62
2022-12-04T11:44:00.241Z,1.67
2022-12-04T11:44:56.847Z,1.70
2022-12-04T11:45:56.891Z,1.66
2022-12-04T11:46:56.999Z,1.67
2022-12-04T11:47:56.840Z,1.63
2022-12-04T11:48:56.813Z,1.68
2022-12-04T11:49:57.158Z,1.62
2022-12-04T11:50:56.802Z,1.62
2022-12-04T11:51:56.787Z,1.68
2022-12-04T11:52:56.810Z,1.60
2022-12-04T11:53:56.775Z,1.70
2022-12-04T11:54:56.782Z,1.70
2022-12-04T11:55:56.787Z,1.70
2022-12-04T11:56:56.770Z,1.76
2022-12-04T11:57:56.764Z,1.62
2022-12-04T11:58:56.726Z,1.70
2022-12-04T11:59:57.097Z,1.63
2022-12-04T12:00:56.747Z,1.66
2022-12-04T12:01:58.685Z,1.71
2022-12-04T12:02:56.888Z,1.73
2022-12-04T12:03:56.716Z,1.62
2022-12-04T12:04:56.685Z,1.62
2022-12-04T12:05:56.685Z,1.60
2022-12-04T12:06:56.677Z,1.68
2022-12-04T12:08:02.583Z,1.66
2022-12-04T12:08:57.664Z,1.71
2022-12-04T12:09:57.084Z,1.66
2022-12-04T12:10:56.656Z,1.59
2022-12-04T12:11:56.677Z,1.68
2022-12-04T12:12:56.652Z,1.68
2022-12-04T12:13:56.697Z,1.67
2022-12-04T12:14:56.799Z,1.67
2022-12-04T12:15:56.621Z,1.68
2022-12-04T12:16:56.629Z,1.59
2022-12-04T12:17:56.623Z,1.67
2022-12-04T12:18:56.617Z,1.60
2022-12-04T12:19:56.798Z,1.63
2022-12-04T12:20:56.603Z,1.45
2022-12-04T12:21:58.007Z,1.58
2022-12-04T12:22:56.580Z,1.56
2022-12-04T12:23:56.568Z,1.56
2022-12-04T12:24:56.907Z,1.63
2022-12-04T12:25:56.594Z,1.55
2022-12-04T12:26:56.545Z,1.66
2022-12-04T12:27:56.565Z,1.60
2022-12-04T12:28:56.577Z,1.56
2022-12-04T12:29:56.813Z,1.59
2022-12-04T12:31:01.063Z,1.66
2022-12-04T12:31:57.623Z,1.60
2022-12-04T12:32:56.508Z,1.60
2022-12-04T12:33:56.508Z,1.56
2022-12-04T12:34:56.534Z,1.59
2022-12-04T12:35:56.540Z,1.68
2022-12-04T12:37:00.731Z,1.66
2022-12-04T12:37:56.487Z,1.58
2022-12-04T12:38:56.471Z,1.74
2022-12-04T12:39:56.613Z,1.71
2022-12-04T12:40:56.485Z,1.62
2022-12-04T12:41:56.448Z,1.67
2022-12-04T12:42:58.508Z,1.66
2022-12-04T12:43:56.471Z,1.52
2022-12-04T12:44:56.432Z,1.59
2022-12-04T12:45:56.456Z,1.55
2022-12-04T12:46:56.405Z,1.55
2022-12-04T12:47:56.399Z,1.45
2022-12-04T12:48:58.537Z,1.48
2022-12-04T12:49:56.678Z,1.45
2022-12-04T12:51:14.979Z,1.37
2022-12-04T12:51:57.389Z,1.42
2022-12-04T12:52:56.384Z,1.44
2022-12-04T12:53:56.360Z,1.50
2022-12-04T12:54:56.367Z,1.52
2022-12-04T12:55:56.414Z,1.52
2022-12-04T12:56:56.360Z,1.52
2022-12-04T12:57:56.355Z,1.53
2022-12-04T12:58:56.342Z,1.55
2022-12-04T12:59:56.733Z,1.41
2022-12-04T13:00:56.360Z,1.49
2022-12-04T13:02:00.728Z,1.45
2022-12-04T13:02:56.369Z,1.49
2022-12-04T13:03:56.311Z,1.53
2022-12-04T13:04:56.286Z,1.49
2022-12-04T13:05:56.293Z,1.45
2022-12-04T13:06:56.352Z,1.44
2022-12-04T13:07:56.334Z,1.50
2022-12-04T13:08:56.262Z,1.52
2022-12-04T13:09:58.828Z,1.55
2022-12-04T13:11:03.246Z,1.49
2022-12-04T13:11:56.256Z,1.49
2022-12-04T13:12:56.266Z,1.53
2022-12-04T13:13:56.221Z,1.59
2022-12-04T13:14:56.225Z,1.59
2022-12-04T13:15:56.231Z,1.62
2022-12-04T13:16:56.280Z,1.56